Mataiva Airport

NTGV · French Polynesia

METAR NTGV · Mataiva Airport

25 六月 11:00 LT
23m
使用的METAR站距离机场313 km。
罗盘
风向 的 风向 310° Mataiva Airport 1/19
风: 6 kt, 2 beaufort

2 kt

6 kt
改变
0 ft 2.000 4.000 6.000 8.000 10.000
Cloud Cloud
FEW 2.000
Cloud Cloud Cloud Cloud Cloud Cloud
BKN 4.600
Cloud Cloud Cloud Cloud Cloud Cloud Cloud Cloud
OVC 6.200
METAR NTAA 252100Z AUTO 31006KT 9999 FEW020 BKN046 OVC062 27/22 Q1017 NOSIG

METAR Mataiva Airport - NTGV/MVT

该字段位于French Polynesia中。 该机场位于纬度-14,87237和经度-148,71387。 该机场有一条跑道: 1/19. 本场的ICAO机场代码为NTGV。 该机场的IATA代码为MVT。 机场在Tahiti FIR中。

该航空气象观测是针对Faa'a International Airport在2024年6月25日 11:00, 当地时间进行的。

机场观察

风向为310°,速度为6 kt。

可见度为10 km 或者更多。

有几云在2.000 ft的高度, 碎云在4.600 ft的高度 和 乌云密布在6.200 ft的高度。 破损或更高的上限为4.600 ft。

温度和风寒是27 °C。 热指数为29。 露点为22 °C,相对湿度为74%。 海平面上的气压为1017 hPa (QNH)。

白天

今天,太阳从06:20升起,在17:35降落。 这适用于Mataiva Airport,世界夏令时可能有所不同。 当地时间与世界标准时间之间的时差为-10 小时。 夏令时目前正在进行中。

公司介绍

我们没有关于这个机场的公司信息。

体会

到Vliegles.nl去找飞行课程,跳伞和其他飞行体验。 浏览页面,了解Mataiva Airport附近所有可用的活动。 你也可以使用搜索功能来寻找你所在地附近的特定飞行课程、跳伞或其他飞行体验。

跑道

Id 标题 侧风 逆风 侧风 %
1/19 017°-197° 6 kt 2 kt 92 %

逆风成分最大的方向会被突出显示,并用于横风计算。 这并不一定意味着这个方向在使用。

乌云

2.000 ft FEW 几云
4.600 ft BKN 碎云
6.200 ft OVC 乌云密布

温度 & 天气

温度 27 °C
露点 22 °C
相对湿度 74%
热度指数 29 °C
Kp-index 0 (0-9)

白天

日出
06:28
中午
12:01
日落
17:33 (6:10)

小工具

你想在你的网站上有一个关于Mataiva Airport的当前航空天气(METAR)的小部件吗?

显示HTML代码
报告变更